sensor_id;sensor_type;location;lat;lon;timestamp;P1;durP1;ratioP1;P2;durP2;ratioP2
28373;SDS011;15616;40.148;-102.718;2022-10-16T00:01:51;3.67;;;2.33;;
28373;SDS011;15616;40.148;-102.718;2022-10-16T00:04:17;5.53;;;2.63;;
28373;SDS011;15616;40.148;-102.718;2022-10-16T00:06:43;4.10;;;2.55;;
28373;SDS011;15616;40.148;-102.718;2022-10-16T00:09:09;4.28;;;2.70;;
28373;SDS011;15616;40.148;-102.718;2022-10-16T00:11:36;4.95;;;2.75;;
28373;SDS011;15616;40.148;-102.718;2022-10-16T00:14:04;6.28;;;2.63;;
28373;SDS011;15616;40.148;-102.718;2022-10-16T00:16:34;5.15;;;2.70;;
28373;SDS011;15616;40.148;-102.718;2022-10-16T00:19:00;4.57;;;2.47;;
28373;SDS011;15616;40.148;-102.718;2022-10-16T00:21:27;5.55;;;2.83;;
28373;SDS011;15616;40.148;-102.718;2022-10-16T00:23:58;4.72;;;2.80;;
28373;SDS011;15616;40.148;-102.718;2022-10-16T00:26:30;4.20;;;2.55;;
28373;SDS011;15616;40.148;-102.718;2022-10-16T00:28:57;5.20;;;2.65;;
28373;SDS011;15616;40.148;-102.718;2022-10-16T00:31:23;3.80;;;2.50;;
28373;SDS011;15616;40.148;-102.718;2022-10-16T00:33:50;4.82;;;2.50;;
28373;SDS011;15616;40.148;-102.718;2022-10-16T00:36:17;6.68;;;2.40;;
28373;SDS011;15616;40.148;-102.718;2022-10-16T00:38:45;3.50;;;2.28;;
28373;SDS011;15616;40.148;-102.718;2022-10-16T00:41:13;4.63;;;2.40;;
28373;SDS011;15616;40.148;-102.718;2022-10-16T00:43:42;4.45;;;2.60;;
28373;SDS011;15616;40.148;-102.718;2022-10-16T00:48:42;6.20;;;2.33;;
28373;SDS011;15616;40.148;-102.718;2022-10-16T00:51:16;4.60;;;2.47;;
28373;SDS011;15616;40.148;-102.718;2022-10-16T00:53:46;3.92;;;2.22;;
28373;SDS011;15616;40.148;-102.718;2022-10-16T00:56:14;4.15;;;2.53;;
28373;SDS011;15616;40.148;-102.718;2022-10-16T00:58:40;3.58;;;2.42;;
28373;SDS011;15616;40.148;-102.718;2022-10-16T01:01:06;4.50;;;2.78;;
28373;SDS011;15616;40.148;-102.718;2022-10-16T01:03:35;4.03;;;2.30;;
28373;SDS011;15616;40.148;-102.718;2022-10-16T01:06:08;4.95;;;2.38;;
28373;SDS011;15616;40.148;-102.718;2022-10-16T01:09:04;6.95;;;2.65;;
28373;SDS011;15616;40.148;-102.718;2022-10-16T01:14:47;5.78;;;2.40;;
28373;SDS011;15616;40.148;-102.718;2022-10-16T01:17:18;6.65;;;2.58;;
28373;SDS011;15616;40.148;-102.718;2022-10-16T01:19:54;5.10;;;2.50;;
28373;SDS011;15616;40.148;-102.718;2022-10-16T01:22:32;4.90;;;2.42;;
28373;SDS011;15616;40.148;-102.718;2022-10-16T01:25:13;4.45;;;2.30;;
28373;SDS011;15616;40.148;-102.718;2022-10-16T01:27:50;4.15;;;2.25;;
28373;SDS011;15616;40.148;-102.718;2022-10-16T01:30:17;4.00;;;2.50;;
28373;SDS011;15616;40.148;-102.718;2022-10-16T01:33:05;4.95;;;2.33;;
28373;SDS011;15616;40.148;-102.718;2022-10-16T01:35:38;4.85;;;2.50;;
28373;SDS011;15616;40.148;-102.718;2022-10-16T01:38:10;3.78;;;2.33;;
28373;SDS011;15616;40.148;-102.718;2022-10-16T01:40:37;3.67;;;2.20;;
28373;SDS011;15616;40.148;-102.718;2022-10-16T01:43:07;2.60;;;2.22;;
28373;SDS011;15616;40.148;-102.718;2022-10-16T01:45:39;5.70;;;2.50;;
28373;SDS011;15616;40.148;-102.718;2022-10-16T01:48:09;5.78;;;2.58;;
28373;SDS011;15616;40.148;-102.718;2022-10-16T01:50:39;4.18;;;2.40;;
28373;SDS011;15616;40.148;-102.718;2022-10-16T01:53:08;3.67;;;2.30;;
28373;SDS011;15616;40.148;-102.718;2022-10-16T01:55:38;4.40;;;2.30;;
28373;SDS011;15616;40.148;-102.718;2022-10-16T01:58:10;5.22;;;2.60;;
28373;SDS011;15616;40.148;-102.718;2022-10-16T02:00:38;4.40;;;2.28;;
28373;SDS011;15616;40.148;-102.718;2022-10-16T02:03:07;4.85;;;2.60;;
28373;SDS011;15616;40.148;-102.718;2022-10-16T02:05:37;3.97;;;2.38;;
28373;SDS011;15616;40.148;-102.718;2022-10-16T02:08:07;3.67;;;2.22;;
28373;SDS011;15616;40.148;-102.718;2022-10-16T02:10:34;5.10;;;2.80;;
28373;SDS011;15616;40.148;-102.718;2022-10-16T02:15:48;5.50;;;2.58;;
28373;SDS011;15616;40.148;-102.718;2022-10-16T02:18:14;4.47;;;2.40;;
28373;SDS011;15616;40.148;-102.718;2022-10-16T02:20:44;3.85;;;2.28;;
28373;SDS011;15616;40.148;-102.718;2022-10-16T02:23:18;4.88;;;2.60;;
28373;SDS011;15616;40.148;-102.718;2022-10-16T02:25:49;3.58;;;2.50;;
28373;SDS011;15616;40.148;-102.718;2022-10-16T02:28:19;4.72;;;2.60;;
28373;SDS011;15616;40.148;-102.718;2022-10-16T02:30:59;4.00;;;2.53;;
28373;SDS011;15616;40.148;-102.718;2022-10-16T02:33:28;4.20;;;2.55;;
28373;SDS011;15616;40.148;-102.718;2022-10-16T02:35:56;3.15;;;2.30;;
28373;SDS011;15616;40.148;-102.718;2022-10-16T02:38:23;4.10;;;2.05;;
28373;SDS011;15616;40.148;-102.718;2022-10-16T02:40:50;4.20;;;2.45;;
28373;SDS011;15616;40.148;-102.718;2022-10-16T02:43:17;4.35;;;2.40;;
28373;SDS011;15616;40.148;-102.718;2022-10-16T02:45:43;4.90;;;2.47;;
28373;SDS011;15616;40.148;-102.718;2022-10-16T02:48:09;3.95;;;2.47;;
28373;SDS011;15616;40.148;-102.718;2022-10-16T02:50:35;3.95;;;2.30;;
28373;SDS011;15616;40.148;-102.718;2022-10-16T02:53:01;4.65;;;2.53;;
28373;SDS011;15616;40.148;-102.718;2022-10-16T02:55:27;6.82;;;2.60;;
28373;SDS011;15616;40.148;-102.718;2022-10-16T02:57:53;5.00;;;2.63;;
28373;SDS011;15616;40.148;-102.718;2022-10-16T03:00:19;5.30;;;2.50;;
28373;SDS011;15616;40.148;-102.718;2022-10-16T03:02:45;4.00;;;2.70;;
28373;SDS011;15616;40.148;-102.718;2022-10-16T03:05:11;4.70;;;2.55;;
28373;SDS011;15616;40.148;-102.718;2022-10-16T03:07:37;5.72;;;2.40;;
28373;SDS011;15616;40.148;-102.718;2022-10-16T03:10:04;4.32;;;2.20;;
28373;SDS011;15616;40.148;-102.718;2022-10-16T03:12:30;3.30;;;2.30;;
28373;SDS011;15616;40.148;-102.718;2022-10-16T03:14:56;4.57;;;2.70;;
28373;SDS011;15616;40.148;-102.718;2022-10-16T03:17:22;3.72;;;2.30;;
28373;SDS011;15616;40.148;-102.718;2022-10-16T03:19:49;5.55;;;2.95;;
28373;SDS011;15616;40.148;-102.718;2022-10-16T03:22:15;4.70;;;2.60;;
28373;SDS011;15616;40.148;-102.718;2022-10-16T03:24:41;4.03;;;2.15;;
28373;SDS011;15616;40.148;-102.718;2022-10-16T03:27:07;4.68;;;2.45;;
28373;SDS011;15616;40.148;-102.718;2022-10-16T03:29:33;5.07;;;2.75;;
28373;SDS011;15616;40.148;-102.718;2022-10-16T03:31:59;3.78;;;2.30;;
28373;SDS011;15616;40.148;-102.718;2022-10-16T03:34:25;5.10;;;2.60;;
28373;SDS011;15616;40.148;-102.718;2022-10-16T03:36:51;4.72;;;2.55;;
28373;SDS011;15616;40.148;-102.718;2022-10-16T03:39:18;3.75;;;2.40;;
28373;SDS011;15616;40.148;-102.718;2022-10-16T03:41:45;3.35;;;2.28;;
28373;SDS011;15616;40.148;-102.718;2022-10-16T03:44:13;3.92;;;2.38;;
28373;SDS011;15616;40.148;-102.718;2022-10-16T03:46:39;3.30;;;2.30;;
28373;SDS011;15616;40.148;-102.718;2022-10-16T03:49:05;4.13;;;2.22;;
28373;SDS011;15616;40.148;-102.718;2022-10-16T03:51:31;4.60;;;2.58;;
28373;SDS011;15616;40.148;-102.718;2022-10-16T03:53:57;4.78;;;2.38;;
28373;SDS011;15616;40.148;-102.718;2022-10-16T03:56:23;3.83;;;2.35;;
28373;SDS011;15616;40.148;-102.718;2022-10-16T03:58:49;4.38;;;2.42;;
28373;SDS011;15616;40.148;-102.718;2022-10-16T04:01:15;4.55;;;2.53;;
28373;SDS011;15616;40.148;-102.718;2022-10-16T04:03:41;3.83;;;2.35;;
28373;SDS011;15616;40.148;-102.718;2022-10-16T04:06:07;4.28;;;2.60;;
28373;SDS011;15616;40.148;-102.718;2022-10-16T04:08:34;5.25;;;2.50;;
28373;SDS011;15616;40.148;-102.718;2022-10-16T04:11:02;8.27;;;2.50;;
28373;SDS011;15616;40.148;-102.718;2022-10-16T04:13:28;6.40;;;2.70;;
28373;SDS011;15616;40.148;-102.718;2022-10-16T04:15:54;3.42;;;2.10;;
28373;SDS011;15616;40.148;-102.718;2022-10-16T04:18:20;4.15;;;2.40;;
28373;SDS011;15616;40.148;-102.718;2022-10-16T04:20:46;4.95;;;2.50;;
28373;SDS011;15616;40.148;-102.718;2022-10-16T04:23:11;4.38;;;2.40;;
28373;SDS011;15616;40.148;-102.718;2022-10-16T04:25:37;2.78;;;2.10;;
28373;SDS011;15616;40.148;-102.718;2022-10-16T04:28:03;3.97;;;2.58;;
28373;SDS011;15616;40.148;-102.718;2022-10-16T04:30:29;3.72;;;2.50;;
28373;SDS011;15616;40.148;-102.718;2022-10-16T04:32:55;3.63;;;2.38;;
28373;SDS011;15616;40.148;-102.718;2022-10-16T04:35:21;4.55;;;2.63;;
28373;SDS011;15616;40.148;-102.718;2022-10-16T04:37:47;3.13;;;2.28;;
28373;SDS011;15616;40.148;-102.718;2022-10-16T04:40:13;4.20;;;2.40;;
28373;SDS011;15616;40.148;-102.718;2022-10-16T04:42:40;3.60;;;2.42;;
28373;SDS011;15616;40.148;-102.718;2022-10-16T04:45:06;3.80;;;2.47;;
28373;SDS011;15616;40.148;-102.718;2022-10-16T04:47:33;4.35;;;2.50;;
28373;SDS011;15616;40.148;-102.718;2022-10-16T04:49:59;3.80;;;2.50;;
28373;SDS011;15616;40.148;-102.718;2022-10-16T04:52:27;8.77;;;2.33;;
28373;SDS011;15616;40.148;-102.718;2022-10-16T04:54:53;3.92;;;2.60;;
28373;SDS011;15616;40.148;-102.718;2022-10-16T04:57:21;3.80;;;2.55;;
28373;SDS011;15616;40.148;-102.718;2022-10-16T04:59:47;4.05;;;2.30;;
28373;SDS011;15616;40.148;-102.718;2022-10-16T05:02:13;4.07;;;2.30;;
28373;SDS011;15616;40.148;-102.718;2022-10-16T05:04:39;4.10;;;2.45;;
28373;SDS011;15616;40.148;-102.718;2022-10-16T05:07:04;4.97;;;2.22;;
28373;SDS011;15616;40.148;-102.718;2022-10-16T05:09:30;3.33;;;2.13;;
28373;SDS011;15616;40.148;-102.718;2022-10-16T05:11:56;3.85;;;2.40;;
28373;SDS011;15616;40.148;-102.718;2022-10-16T05:14:22;4.07;;;2.30;;
28373;SDS011;15616;40.148;-102.718;2022-10-16T05:16:48;3.53;;;2.28;;
28373;SDS011;15616;40.148;-102.718;2022-10-16T05:19:14;4.40;;;2.47;;
28373;SDS011;15616;40.148;-102.718;2022-10-16T05:21:40;5.80;;;2.47;;
28373;SDS011;15616;40.148;-102.718;2022-10-16T05:24:06;3.47;;;2.20;;
28373;SDS011;15616;40.148;-102.718;2022-10-16T05:26:32;3.17;;;2.20;;
28373;SDS011;15616;40.148;-102.718;2022-10-16T05:28:57;4.50;;;2.97;;
28373;SDS011;15616;40.148;-102.718;2022-10-16T05:31:23;3.97;;;2.33;;
28373;SDS011;15616;40.148;-102.718;2022-10-16T05:33:49;4.32;;;2.10;;
28373;SDS011;15616;40.148;-102.718;2022-10-16T05:36:15;4.32;;;2.42;;
28373;SDS011;15616;40.148;-102.718;2022-10-16T05:38:41;3.92;;;2.40;;
28373;SDS011;15616;40.148;-102.718;2022-10-16T05:41:07;3.67;;;2.20;;
28373;SDS011;15616;40.148;-102.718;2022-10-16T05:43:33;4.28;;;2.50;;
28373;SDS011;15616;40.148;-102.718;2022-10-16T05:46:08;5.45;;;2.40;;
28373;SDS011;15616;40.148;-102.718;2022-10-16T05:48:34;3.67;;;2.10;;
28373;SDS011;15616;40.148;-102.718;2022-10-16T05:51:04;3.80;;;2.35;;
28373;SDS011;15616;40.148;-102.718;2022-10-16T05:53:35;2.95;;;2.10;;
28373;SDS011;15616;40.148;-102.718;2022-10-16T05:56:02;3.47;;;1.92;;
28373;SDS011;15616;40.148;-102.718;2022-10-16T05:58:30;4.22;;;2.60;;
28373;SDS011;15616;40.148;-102.718;2022-10-16T06:01:01;3.85;;;2.35;;
28373;SDS011;15616;40.148;-102.718;2022-10-16T06:03:29;3.15;;;2.30;;
28373;SDS011;15616;40.148;-102.718;2022-10-16T06:05:55;4.90;;;2.33;;
28373;SDS011;15616;40.148;-102.718;2022-10-16T06:08:21;8.27;;;2.58;;
28373;SDS011;15616;40.148;-102.718;2022-10-16T06:10:48;3.67;;;2.30;;
28373;SDS011;15616;40.148;-102.718;2022-10-16T06:13:24;3.63;;;2.33;;
28373;SDS011;15616;40.148;-102.718;2022-10-16T06:15:50;4.72;;;2.00;;
28373;SDS011;15616;40.148;-102.718;2022-10-16T06:18:16;4.45;;;2.47;;
28373;SDS011;15616;40.148;-102.718;2022-10-16T06:20:42;3.97;;;2.45;;
28373;SDS011;15616;40.148;-102.718;2022-10-16T06:23:08;4.70;;;2.35;;
28373;SDS011;15616;40.148;-102.718;2022-10-16T06:25:34;3.40;;;2.15;;
28373;SDS011;15616;40.148;-102.718;2022-10-16T06:27:59;3.30;;;2.22;;
28373;SDS011;15616;40.148;-102.718;2022-10-16T06:30:25;3.50;;;2.28;;
28373;SDS011;15616;40.148;-102.718;2022-10-16T06:32:51;5.00;;;2.53;;
28373;SDS011;15616;40.148;-102.718;2022-10-16T06:35:17;3.92;;;2.40;;
28373;SDS011;15616;40.148;-102.718;2022-10-16T06:37:43;4.28;;;2.08;;
28373;SDS011;15616;40.148;-102.718;2022-10-16T06:40:08;3.90;;;2.28;;
28373;SDS011;15616;40.148;-102.718;2022-10-16T06:42:34;3.95;;;2.20;;
28373;SDS011;15616;40.148;-102.718;2022-10-16T06:45:00;3.72;;;2.40;;
28373;SDS011;15616;40.148;-102.718;2022-10-16T06:47:27;4.43;;;2.20;;
28373;SDS011;15616;40.148;-102.718;2022-10-16T06:49:53;4.05;;;2.13;;
28373;SDS011;15616;40.148;-102.718;2022-10-16T06:52:18;4.70;;;2.35;;
28373;SDS011;15616;40.148;-102.718;2022-10-16T06:54:44;3.33;;;2.20;;
28373;SDS011;15616;40.148;-102.718;2022-10-16T06:57:10;2.97;;;2.30;;
28373;SDS011;15616;40.148;-102.718;2022-10-16T06:59:36;4.15;;;2.60;;
28373;SDS011;15616;40.148;-102.718;2022-10-16T07:02:02;3.95;;;2.00;;
28373;SDS011;15616;40.148;-102.718;2022-10-16T07:04:28;4.13;;;2.55;;
28373;SDS011;15616;40.148;-102.718;2022-10-16T07:06:53;4.95;;;2.38;;
28373;SDS011;15616;40.148;-102.718;2022-10-16T07:09:19;3.60;;;2.15;;
28373;SDS011;15616;40.148;-102.718;2022-10-16T07:11:45;5.07;;;2.40;;
28373;SDS011;15616;40.148;-102.718;2022-10-16T07:14:17;4.30;;;2.38;;
28373;SDS011;15616;40.148;-102.718;2022-10-16T07:16:44;4.40;;;2.40;;
28373;SDS011;15616;40.148;-102.718;2022-10-16T07:19:11;3.25;;;2.10;;
28373;SDS011;15616;40.148;-102.718;2022-10-16T07:21:39;3.65;;;2.22;;
28373;SDS011;15616;40.148;-102.718;2022-10-16T07:24:06;4.35;;;2.42;;
28373;SDS011;15616;40.148;-102.718;2022-10-16T07:26:38;3.25;;;2.03;;
28373;SDS011;15616;40.148;-102.718;2022-10-16T07:29:05;4.95;;;2.60;;
28373;SDS011;15616;40.148;-102.718;2022-10-16T07:31:49;3.92;;;2.30;;
28373;SDS011;15616;40.148;-102.718;2022-10-16T07:34:15;4.18;;;2.28;;
28373;SDS011;15616;40.148;-102.718;2022-10-16T07:36:42;3.50;;;2.30;;
28373;SDS011;15616;40.148;-102.718;2022-10-16T07:39:08;4.00;;;2.42;;
28373;SDS011;15616;40.148;-102.718;2022-10-16T07:41:34;3.55;;;2.30;;
28373;SDS011;15616;40.148;-102.718;2022-10-16T07:44:02;5.45;;;2.42;;
28373;SDS011;15616;40.148;-102.718;2022-10-16T07:46:28;4.50;;;2.17;;
28373;SDS011;15616;40.148;-102.718;2022-10-16T07:48:55;3.97;;;2.30;;
28373;SDS011;15616;40.148;-102.718;2022-10-16T07:51:22;3.85;;;2.40;;
28373;SDS011;15616;40.148;-102.718;2022-10-16T07:53:49;3.70;;;2.28;;
28373;SDS011;15616;40.148;-102.718;2022-10-16T07:56:16;3.28;;;1.77;;
28373;SDS011;15616;40.148;-102.718;2022-10-16T07:58:43;3.88;;;2.33;;
28373;SDS011;15616;40.148;-102.718;2022-10-16T08:01:10;3.90;;;2.40;;
28373;SDS011;15616;40.148;-102.718;2022-10-16T08:03:38;4.15;;;2.47;;
28373;SDS011;15616;40.148;-102.718;2022-10-16T08:06:13;3.35;;;2.13;;
28373;SDS011;15616;40.148;-102.718;2022-10-16T08:08:39;3.47;;;2.30;;
28373;SDS011;15616;40.148;-102.718;2022-10-16T08:11:05;3.63;;;2.25;;
28373;SDS011;15616;40.148;-102.718;2022-10-16T08:13:31;4.10;;;2.35;;
28373;SDS011;15616;40.148;-102.718;2022-10-16T08:15:57;3.42;;;2.10;;
28373;SDS011;15616;40.148;-102.718;2022-10-16T08:18:23;3.60;;;2.40;;
28373;SDS011;15616;40.148;-102.718;2022-10-16T08:20:58;3.83;;;2.25;;
28373;SDS011;15616;40.148;-102.718;2022-10-16T08:23:25;4.45;;;2.20;;
28373;SDS011;15616;40.148;-102.718;2022-10-16T08:25:55;3.97;;;2.47;;
28373;SDS011;15616;40.148;-102.718;2022-10-16T08:28:22;3.28;;;2.20;;
28373;SDS011;15616;40.148;-102.718;2022-10-16T08:30:48;3.95;;;2.28;;
28373;SDS011;15616;40.148;-102.718;2022-10-16T08:33:14;4.15;;;2.25;;
28373;SDS011;15616;40.148;-102.718;2022-10-16T08:35:40;4.32;;;2.30;;
28373;SDS011;15616;40.148;-102.718;2022-10-16T08:38:06;4.13;;;2.30;;
28373;SDS011;15616;40.148;-102.718;2022-10-16T08:40:33;5.22;;;2.13;;
28373;SDS011;15616;40.148;-102.718;2022-10-16T08:49:09;3.50;;;2.42;;
28373;SDS011;15616;40.148;-102.718;2022-10-16T08:51:32;4.32;;;2.47;;
28373;SDS011;15616;40.148;-102.718;2022-10-16T08:54:02;2.88;;;2.00;;
28373;SDS011;15616;40.148;-102.718;2022-10-16T08:56:54;4.07;;;2.20;;
28373;SDS011;15616;40.148;-102.718;2022-10-16T08:59:31;4.80;;;2.47;;
28373;SDS011;15616;40.148;-102.718;2022-10-16T09:01:57;4.22;;;2.35;;
28373;SDS011;15616;40.148;-102.718;2022-10-16T09:15:36;4.72;;;2.20;;
28373;SDS011;15616;40.148;-102.718;2022-10-16T09:21:09;8.27;;;2.60;;
28373;SDS011;15616;40.148;-102.718;2022-10-16T09:23:47;4.97;;;2.17;;
28373;SDS011;15616;40.148;-102.718;2022-10-16T09:26:14;4.95;;;2.60;;
28373;SDS011;15616;40.148;-102.718;2022-10-16T09:28:41;4.03;;;2.38;;
28373;SDS011;15616;40.148;-102.718;2022-10-16T09:31:14;4.03;;;2.20;;
28373;SDS011;15616;40.148;-102.718;2022-10-16T09:33:43;3.97;;;2.20;;
28373;SDS011;15616;40.148;-102.718;2022-10-16T09:36:13;6.03;;;2.53;;
28373;SDS011;15616;40.148;-102.718;2022-10-16T09:38:40;4.70;;;2.53;;
28373;SDS011;15616;40.148;-102.718;2022-10-16T09:41:21;4.95;;;2.78;;
28373;SDS011;15616;40.148;-102.718;2022-10-16T09:43:54;4.35;;;2.50;;
28373;SDS011;15616;40.148;-102.718;2022-10-16T09:46:32;3.63;;;2.40;;
28373;SDS011;15616;40.148;-102.718;2022-10-16T09:49:01;4.65;;;2.70;;
28373;SDS011;15616;40.148;-102.718;2022-10-16T09:51:32;5.75;;;2.42;;
28373;SDS011;15616;40.148;-102.718;2022-10-16T09:54:12;5.13;;;2.20;;
28373;SDS011;15616;40.148;-102.718;2022-10-16T09:56:40;4.22;;;2.30;;
28373;SDS011;15616;40.148;-102.718;2022-10-16T09:59:13;5.22;;;2.40;;
28373;SDS011;15616;40.148;-102.718;2022-10-16T10:04:07;3.53;;;2.08;;
28373;SDS011;15616;40.148;-102.718;2022-10-16T10:07:16;4.07;;;2.40;;
28373;SDS011;15616;40.148;-102.718;2022-10-16T10:09:23;5.25;;;2.03;;
28373;SDS011;15616;40.148;-102.718;2022-10-16T10:12:04;3.35;;;2.05;;
28373;SDS011;15616;40.148;-102.718;2022-10-16T10:14:44;4.28;;;2.25;;
28373;SDS011;15616;40.148;-102.718;2022-10-16T10:17:13;6.20;;;2.40;;
28373;SDS011;15616;40.148;-102.718;2022-10-16T10:27:42;5.53;;;2.55;;
28373;SDS011;15616;40.148;-102.718;2022-10-16T10:30:43;3.20;;;2.28;;
28373;SDS011;15616;40.148;-102.718;2022-10-16T10:36:17;8.75;;;2.50;;
28373;SDS011;15616;40.148;-102.718;2022-10-16T10:41:21;6.43;;;2.80;;
28373;SDS011;15616;40.148;-102.718;2022-10-16T10:49:23;6.22;;;2.83;;
28373;SDS011;15616;40.148;-102.718;2022-10-16T10:57:33;5.13;;;2.80;;
28373;SDS011;15616;40.148;-102.718;2022-10-16T11:06:16;8.45;;;2.55;;
28373;SDS011;15616;40.148;-102.718;2022-10-16T11:11:38;4.70;;;2.25;;
28373;SDS011;15616;40.148;-102.718;2022-10-16T11:14:14;4.93;;;2.60;;
28373;SDS011;15616;40.148;-102.718;2022-10-16T11:17:04;4.90;;;2.38;;
28373;SDS011;15616;40.148;-102.718;2022-10-16T11:19:49;5.70;;;2.30;;
28373;SDS011;15616;40.148;-102.718;2022-10-16T11:22:24;3.28;;;2.35;;
28373;SDS011;15616;40.148;-102.718;2022-10-16T11:25:06;5.25;;;2.60;;
28373;SDS011;15616;40.148;-102.718;2022-10-16T11:33:37;3.50;;;2.50;;
28373;SDS011;15616;40.148;-102.718;2022-10-16T11:36:11;3.47;;;2.10;;
28373;SDS011;15616;40.148;-102.718;2022-10-16T11:41:53;4.50;;;2.22;;
28373;SDS011;15616;40.148;-102.718;2022-10-16T11:44:34;6.00;;;2.92;;
28373;SDS011;15616;40.148;-102.718;2022-10-16T11:53:39;5.35;;;2.90;;
28373;SDS011;15616;40.148;-102.718;2022-10-16T11:56:15;5.60;;;2.92;;
28373;SDS011;15616;40.148;-102.718;2022-10-16T11:58:50;6.35;;;2.80;;
28373;SDS011;15616;40.148;-102.718;2022-10-16T12:09:32;6.47;;;3.00;;
28373;SDS011;15616;40.148;-102.718;2022-10-16T12:12:02;6.30;;;3.10;;
28373;SDS011;15616;40.148;-102.718;2022-10-16T12:16:58;5.15;;;3.00;;
28373;SDS011;15616;40.148;-102.718;2022-10-16T12:19:26;6.82;;;2.85;;
28373;SDS011;15616;40.148;-102.718;2022-10-16T12:21:55;6.50;;;3.28;;
28373;SDS011;15616;40.148;-102.718;2022-10-16T12:27:02;7.25;;;3.38;;
28373;SDS011;15616;40.148;-102.718;2022-10-16T12:29:32;8.23;;;3.60;;
28373;SDS011;15616;40.148;-102.718;2022-10-16T12:34:57;5.88;;;2.85;;
28373;SDS011;15616;40.148;-102.718;2022-10-16T12:37:35;5.32;;;2.92;;
28373;SDS011;15616;40.148;-102.718;2022-10-16T12:40:13;7.22;;;3.00;;
28373;SDS011;15616;40.148;-102.718;2022-10-16T12:42:51;8.55;;;3.47;;
28373;SDS011;15616;40.148;-102.718;2022-10-16T12:47:55;5.38;;;2.97;;
28373;SDS011;15616;40.148;-102.718;2022-10-16T12:50:35;5.50;;;2.95;;
28373;SDS011;15616;40.148;-102.718;2022-10-16T12:53:03;6.50;;;2.78;;
28373;SDS011;15616;40.148;-102.718;2022-10-16T12:55:46;9.52;;;3.25;;
28373;SDS011;15616;40.148;-102.718;2022-10-16T12:58:43;3.70;;;2.55;;
28373;SDS011;15616;40.148;-102.718;2022-10-16T13:01:23;6.10;;;2.92;;
28373;SDS011;15616;40.148;-102.718;2022-10-16T13:04:06;5.50;;;2.60;;
28373;SDS011;15616;40.148;-102.718;2022-10-16T13:06:52;5.05;;;2.72;;
28373;SDS011;15616;40.148;-102.718;2022-10-16T13:10:00;9.90;;;3.40;;
28373;SDS011;15616;40.148;-102.718;2022-10-16T13:29:31;8.85;;;3.08;;
28373;SDS011;15616;40.148;-102.718;2022-10-16T13:31:59;4.32;;;2.70;;
28373;SDS011;15616;40.148;-102.718;2022-10-16T13:34:32;7.65;;;3.08;;
28373;SDS011;15616;40.148;-102.718;2022-10-16T13:36:58;5.53;;;2.80;;
28373;SDS011;15616;40.148;-102.718;2022-10-16T13:39:27;4.45;;;2.55;;
28373;SDS011;15616;40.148;-102.718;2022-10-16T13:42:01;6.07;;;3.00;;
28373;SDS011;15616;40.148;-102.718;2022-10-16T13:44:31;9.48;;;2.60;;
28373;SDS011;15616;40.148;-102.718;2022-10-16T13:47:17;7.65;;;2.95;;
28373;SDS011;15616;40.148;-102.718;2022-10-16T13:50:01;5.93;;;2.83;;
28373;SDS011;15616;40.148;-102.718;2022-10-16T13:52:34;6.40;;;3.38;;
28373;SDS011;15616;40.148;-102.718;2022-10-16T13:55:00;5.50;;;2.85;;
28373;SDS011;15616;40.148;-102.718;2022-10-16T13:57:26;5.45;;;2.90;;
28373;SDS011;15616;40.148;-102.718;2022-10-16T13:59:52;7.32;;;3.58;;
28373;SDS011;15616;40.148;-102.718;2022-10-16T14:02:26;6.55;;;3.53;;
28373;SDS011;15616;40.148;-102.718;2022-10-16T14:04:52;6.27;;;3.60;;
28373;SDS011;15616;40.148;-102.718;2022-10-16T14:07:21;6.70;;;3.30;;
28373;SDS011;15616;40.148;-102.718;2022-10-16T14:09:51;6.55;;;3.40;;
28373;SDS011;15616;40.148;-102.718;2022-10-16T14:12:17;5.63;;;3.30;;
28373;SDS011;15616;40.148;-102.718;2022-10-16T14:14:44;5.45;;;3.17;;
28373;SDS011;15616;40.148;-102.718;2022-10-16T14:17:13;8.32;;;3.17;;
28373;SDS011;15616;40.148;-102.718;2022-10-16T14:19:44;7.68;;;3.53;;
28373;SDS011;15616;40.148;-102.718;2022-10-16T14:22:33;5.07;;;2.88;;
28373;SDS011;15616;40.148;-102.718;2022-10-16T14:25:24;5.70;;;3.30;;
28373;SDS011;15616;40.148;-102.718;2022-10-16T14:28:00;5.80;;;3.10;;
28373;SDS011;15616;40.148;-102.718;2022-10-16T14:30:35;6.43;;;3.40;;
28373;SDS011;15616;40.148;-102.718;2022-10-16T14:33:02;7.15;;;3.45;;
28373;SDS011;15616;40.148;-102.718;2022-10-16T14:35:34;7.60;;;3.45;;
28373;SDS011;15616;40.148;-102.718;2022-10-16T14:38:03;6.43;;;3.75;;
28373;SDS011;15616;40.148;-102.718;2022-10-16T14:40:32;7.55;;;3.40;;
28373;SDS011;15616;40.148;-102.718;2022-10-16T14:43:00;6.18;;;3.45;;
28373;SDS011;15616;40.148;-102.718;2022-10-16T14:45:28;8.10;;;3.50;;
28373;SDS011;15616;40.148;-102.718;2022-10-16T14:48:03;8.73;;;3.80;;
28373;SDS011;15616;40.148;-102.718;2022-10-16T14:50:40;7.85;;;3.10;;
28373;SDS011;15616;40.148;-102.718;2022-10-16T14:53:11;9.50;;;3.38;;
28373;SDS011;15616;40.148;-102.718;2022-10-16T14:55:38;7.72;;;3.80;;
28373;SDS011;15616;40.148;-102.718;2022-10-16T14:58:07;6.85;;;3.30;;
28373;SDS011;15616;40.148;-102.718;2022-10-16T15:00:46;10.30;;;3.67;;
28373;SDS011;15616;40.148;-102.718;2022-10-16T15:03:13;7.18;;;3.63;;
28373;SDS011;15616;40.148;-102.718;2022-10-16T15:05:39;12.73;;;4.03;;
28373;SDS011;15616;40.148;-102.718;2022-10-16T15:08:05;5.85;;;3.63;;
28373;SDS011;15616;40.148;-102.718;2022-10-16T15:10:32;9.98;;;3.30;;
28373;SDS011;15616;40.148;-102.718;2022-10-16T15:13:02;8.25;;;3.58;;
28373;SDS011;15616;40.148;-102.718;2022-10-16T15:17:59;6.82;;;3.60;;
28373;SDS011;15616;40.148;-102.718;2022-10-16T15:20:27;8.50;;;3.55;;
28373;SDS011;15616;40.148;-102.718;2022-10-16T15:22:55;7.63;;;3.88;;
28373;SDS011;15616;40.148;-102.718;2022-10-16T15:25:38;6.03;;;3.40;;
28373;SDS011;15616;40.148;-102.718;2022-10-16T15:28:08;6.03;;;3.63;;
28373;SDS011;15616;40.148;-102.718;2022-10-16T15:30:35;6.57;;;3.60;;
28373;SDS011;15616;40.148;-102.718;2022-10-16T15:33:02;6.88;;;3.80;;
28373;SDS011;15616;40.148;-102.718;2022-10-16T15:35:28;6.38;;;3.58;;
28373;SDS011;15616;40.148;-102.718;2022-10-16T15:37:55;6.60;;;3.15;;
28373;SDS011;15616;40.148;-102.718;2022-10-16T15:40:21;7.05;;;3.58;;
28373;SDS011;15616;40.148;-102.718;2022-10-16T15:42:48;6.72;;;3.22;;
28373;SDS011;15616;40.148;-102.718;2022-10-16T15:45:14;8.52;;;3.60;;
28373;SDS011;15616;40.148;-102.718;2022-10-16T15:47:41;7.80;;;3.28;;
28373;SDS011;15616;40.148;-102.718;2022-10-16T15:50:09;6.72;;;3.42;;
28373;SDS011;15616;40.148;-102.718;2022-10-16T15:52:37;7.88;;;3.60;;
28373;SDS011;15616;40.148;-102.718;2022-10-16T15:55:05;6.90;;;3.47;;
28373;SDS011;15616;40.148;-102.718;2022-10-16T15:57:36;8.23;;;3.95;;
28373;SDS011;15616;40.148;-102.718;2022-10-16T16:00:09;6.38;;;3.35;;
28373;SDS011;15616;40.148;-102.718;2022-10-16T16:05:07;5.85;;;3.58;;
28373;SDS011;15616;40.148;-102.718;2022-10-16T16:07:35;5.75;;;3.33;;
28373;SDS011;15616;40.148;-102.718;2022-10-16T16:10:02;6.38;;;3.42;;
28373;SDS011;15616;40.148;-102.718;2022-10-16T16:12:30;6.30;;;3.15;;
28373;SDS011;15616;40.148;-102.718;2022-10-16T16:14:56;5.10;;;2.78;;
28373;SDS011;15616;40.148;-102.718;2022-10-16T16:17:21;5.25;;;3.22;;
28373;SDS011;15616;40.148;-102.718;2022-10-16T16:19:49;5.78;;;3.47;;
28373;SDS011;15616;40.148;-102.718;2022-10-16T16:22:15;5.65;;;3.10;;
28373;SDS011;15616;40.148;-102.718;2022-10-16T16:24:41;5.65;;;3.22;;